Wetterdaten: Woche 01.03.10 - 07.03.10 (KW9)
Datum Zeit Temp. Innen Temp. Aussen UV X Diff Temp. Feuchte Inne Feuchte Auss Sonnenschein Luftdruck Regen ab 0,1 Wind Sonnenschein Windben
01.03.2010 00:00 12,4 C 4,8 C 0,0 UV-I 0,0 C 55 % 89 % 0 % 996,5 hPa 0,0 l/m 13,5 km/h (3 Bft) 0,00 h 11,9 km/h (2 Bft)
01.03.2010 01:00 12,4 C 5,1 C 0,0 UV-I 0,0 C 55 % 86 % 0 % 997,9 hPa 0,0 l/m 15,3 km/h (3 Bft) 0,00 h 16,3 km/h (3 Bft)
01.03.2010 02:00 12,4 C 5,1 C 0,0 UV-I 0,0 C 54 % 85 % 0 % 998,6 hPa 0,1 l/m 11,6 km/h (2 Bft) 0,00 h 9,6 km/h (2 Bft)
01.03.2010 03:00 12,6 C 4,9 C 0,0 UV-I 0,0 C 54 % 86 % 0 % 999,2 hPa 0,0 l/m 12,8 km/h (3 Bft) 0,00 h 8,6 km/h (2 Bft)
01.03.2010 04:00 12,5 C 4,4 C 0,0 UV-I 0,0 C 54 % 88 % 0 % 1000,2 hPa 0,2 l/m 13,7 km/h (3 Bft) 0,00 h 10,6 km/h (2 Bft)
01.03.2010 05:00 12,5 C 4,0 C 0,0 UV-I 0,0 C 54 % 90 % 0 % 1001,3 hPa 0,2 l/m 9,7 km/h (2 Bft) 0,00 h 9,1 km/h (2 Bft)
01.03.2010 06:00 12,4 C 3,8 C 0,0 UV-I 0,0 C 54 % 91 % 0 % 1002,4 hPa 0,1 l/m 9,8 km/h (2 Bft) 0,00 h 8,7 km/h (2 Bft)
01.03.2010 07:00 12,3 C 3,9 C 0,0 UV-I 0,0 C 54 % 91 % 0 % 1003,5 hPa 0,2 l/m 9,7 km/h (2 Bft) 0,00 h 8,1 km/h (2 Bft)
01.03.2010 08:00 12,3 C 4,0 C 0,0 UV-I 0,0 C 54 % 90 % 0 % 1004,6 hPa 0,0 l/m 9,1 km/h (2 Bft) 0,00 h 8,2 km/h (2 Bft)
01.03.2010 09:00 12,4 C 4,4 C 0,3 UV-I 0,0 C 54 % 89 % 1 % 1005,8 hPa 0,0 l/m 10,7 km/h (2 Bft) 0,00 h 8,8 km/h (2 Bft)
01.03.2010 10:00 12,6 C 4,9 C 0,2 UV-I 0,0 C 53 % 87 % 1 % 1006,7 hPa 0,0 l/m 10,1 km/h (2 Bft) 0,00 h 9,0 km/h (2 Bft)
01.03.2010 11:00 12,7 C 5,0 C 0,1 UV-I 0,0 C 53 % 88 % 0 % 1008,1 hPa 0,1 l/m 7,5 km/h (2 Bft) 0,00 h 6,1 km/h (2 Bft)
01.03.2010 12:00 12,9 C 5,4 C 1,1 UV-I 0,5 C 53 % 86 % 14 % 1009,2 hPa 0,0 l/m 7,1 km/h (2 Bft) 0,00 h 7,6 km/h (2 Bft)
01.03.2010 13:00 13,0 C 5,7 C 0,7 UV-I 0,3 C 53 % 85 % 9 % 1009,3 hPa 0,1 l/m 7,6 km/h (2 Bft) 0,00 h 5,3 km/h (1 Bft)
01.03.2010 14:00 13,5 C 6,5 C 1,5 UV-I 1,4 C 52 % 81 % 41 % 1010,5 hPa 0,0 l/m 8,8 km/h (2 Bft) 0,13 h 7,1 km/h (2 Bft)
01.03.2010 15:00 13,6 C 6,5 C 0,5 UV-I 0,2 C 51 % 79 % 6 % 1010,4 hPa 0,0 l/m 5,7 km/h (1 Bft) 0,00 h 4,1 km/h (1 Bft)
01.03.2010 16:00 13,7 C 6,9 C 0,6 UV-I 1,2 C 50 % 77 % 34 % 1011,1 hPa 0,0 l/m 7,1 km/h (2 Bft) 0,20 h 5,7 km/h (1 Bft)
01.03.2010 17:00 13,7 C 6,4 C 0,0 UV-I 0,0 C 50 % 79 % 0 % 1011,3 hPa 0,0 l/m 4,8 km/h (1 Bft) 0,00 h 3,8 km/h (1 Bft)
01.03.2010 18:00 13,3 C 5,8 C 0,0 UV-I 0,0 C 51 % 81 % 0 % 1011,6 hPa 0,0 l/m 2,7 km/h (1 Bft) 0,00 h 2,3 km/h (1 Bft)
01.03.2010 19:00 13,1 C 5,3 C 0,0 UV-I 0,0 C 51 % 82 % 0 % 1012,5 hPa 0,0 l/m 2,3 km/h (1 Bft) 0,00 h 2,2 km/h (1 Bft)
01.03.2010 20:00 13,0 C 4,5 C 0,0 UV-I 0,0 C 51 % 84 % 0 % 1013,0 hPa 0,0 l/m 0,2 km/h (0 Bft) 0,00 h 0,3 km/h (0 Bft)
01.03.2010 21:00 12,8 C 3,2 C 0,0 UV-I 0,0 C 51 % 86 % 0 % 1013,5 hPa 0,0 l/m 0,0 km/h (0 Bft) 0,00 h 0,0 km/h (0 Bft)
01.03.2010 22:00 12,8 C 2,0 C 0,0 UV-I 0,0 C 51 % 88 % 0 % 1014,0 hPa 0,0 l/m 0,0 km/h (0 Bft) 0,00 h 0,0 km/h (0 Bft)
01.03.2010 23:00 12,7 C 1,1 C 0,0 UV-I 0,0 C 51 % 89 % 0 % 1014,5 hPa 0,0 l/m 0,0 km/h (0 Bft) 0,00 h 0,0 km/h (0 Bft)
02.03.2010 00:00 12,6 C 0,5 C 0,0 UV-I 0,0 C 50 % 91 % 0 % 1014,8 hPa 0,0 l/m 0,0 km/h (0 Bft) 0,00 h 0,0 km/h (0 Bft)
02.03.2010 01:00 12,6 C 0,2 C 0,0 UV-I 0,0 C 50 % 91 % 0 % 1015,3 hPa 0,0 l/m 0,0 km/h (0 Bft) 0,00 h 0,0 km/h (0 Bft)
02.03.2010 02:00 12,4 C -0,0 C 0,0 UV-I 0,0 C 50 % 92 % 0 % 1016,0 hPa 0,0 l/m 0,0 km/h (0 Bft) 0,00 h 0,0 km/h (0 Bft)
02.03.2010 03:00 12,4 C -0,2 C 0,0 UV-I 0,0 C 50 % 92 % 0 % 1016,1 hPa 0,0 l/m 0,0 km/h (0 Bft) 0,00 h 0,0 km/h (0 Bft)
02.03.2010 04:00 12,3 C -0,2 C 0,0 UV-I 0,0 C 50 % 93 % 0 % 1016,6 hPa 0,0 l/m 0,0 km/h (0 Bft) 0,00 h 0,0 km/h (0 Bft)
02.03.2010 05:00 12,3 C -0,2 C 0,0 UV-I 0,0 C 49 % 93 % 0 % 1016,8 hPa 0,0 l/m 0,0 km/h (0 Bft) 0,00 h 0,0 km/h (0 Bft)
02.03.2010 06:00 12,3 C -0,4 C 0,0 UV-I 0,0 C 49 % 93 % 0 % 1017,2 hPa 0,0 l/m 0,0 km/h (0 Bft) 0,00 h 0,0 km/h (0 Bft)
02.03.2010 07:00 12,2 C -0,2 C 0,0 UV-I 0,0 C 49 % 94 % 0 % 1017,4 hPa 0,0 l/m 0,0 km/h (0 Bft) 0,00 h 0,0 km/h (0 Bft)
02.03.2010 08:00 12,3 C 0,2 C 0,2 UV-I 0,0 C 50 % 94 % 0 % 1018,3 hPa 0,0 l/m 0,0 km/h (0 Bft) 0,00 h 0,0 km/h (0 Bft)
02.03.2010 09:00 12,4 C 1,1 C 1,2 UV-I 4,0 C 50 % 95 % 94 % 1019,1 hPa 0,0 l/m 0,1 km/h (0 Bft) 0,83 h 0,2 km/h (0 Bft)
02.03.2010 10:00 12,7 C 2,8 C 1,8 UV-I 5,9 C 49 % 93 % 100 % 1020,0 hPa 0,0 l/m 1,5 km/h (1 Bft) 0,87 h 2,1 km/h (1 Bft)
02.03.2010 11:00 13,0 C 3,7 C 2,0 UV-I 2,6 C 50 % 89 % 67 % 1020,8 hPa 0,0 l/m 4,1 km/h (1 Bft) 0,37 h 4,1 km/h (1 Bft)
02.03.2010 12:00 13,3 C 5,2 C 4,8 UV-I 7,0 C 50 % 86 % 100 % 1021,1 hPa 0,0 l/m 1,4 km/h (1 Bft) 0,73 h 2,0 km/h (1 Bft)
02.03.2010 13:00 13,9 C 6,6 C 3,8 UV-I 4,7 C 49 % 79 % 78 % 1022,5 hPa 0,0 l/m 3,6 km/h (1 Bft) 0,60 h 3,6 km/h (1 Bft)
02.03.2010 14:00 15,5 C 8,2 C 2,9 UV-I 4,0 C 44 % 71 % 65 % 1024,6 hPa 0,0 l/m 9,2 km/h (2 Bft) 0,57 h 8,4 km/h (2 Bft)
02.03.2010 15:00 15,7 C 8,3 C 1,9 UV-I 3,1 C 43 % 67 % 71 % 1023,1 hPa 0,0 l/m 6,8 km/h (2 Bft) 0,47 h 6,3 km/h (2 Bft)
02.03.2010 16:00 15,6 C 7,8 C 0,0 UV-I 0,2 C 42 % 66 % 5 % 1022,4 hPa 0,1 l/m 8,9 km/h (2 Bft) 0,00 h 7,9 km/h (2 Bft)
02.03.2010 17:00 14,5 C 6,2 C 0,0 UV-I 0,0 C 44 % 73 % 0 % 1022,1 hPa 0,0 l/m 3,0 km/h (1 Bft) 0,00 h 2,2 km/h (1 Bft)
02.03.2010 18:00 13,9 C 4,8 C 0,0 UV-I 0,0 C 46 % 77 % 0 % 1022,5 hPa 0,0 l/m 0,6 km/h (0 Bft) 0,00 h 1,1 km/h (1 Bft)
02.03.2010 19:00 13,3 C 3,6 C 0,0 UV-I 0,0 C 47 % 79 % 0 % 1023,1 hPa 0,0 l/m 0,3 km/h (0 Bft) 0,00 h 0,1 km/h (0 Bft)
02.03.2010 20:00 13,1 C 2,6 C 0,0 UV-I 0,0 C 47 % 80 % 0 % 1023,8 hPa 0,0 l/m 0,6 km/h (0 Bft) 0,00 h 0,9 km/h (0 Bft)
02.03.2010 21:00 12,9 C 1,7 C 0,0 UV-I 0,0 C 47 % 82 % 0 % 1024,0 hPa 0,0 l/m 0,0 km/h (0 Bft) 0,00 h 0,0 km/h (0 Bft)
02.03.2010 22:00 12,8 C 0,9 C 0,0 UV-I 0,0 C 47 % 85 % 0 % 1024,3 hPa 0,0 l/m 0,0 km/h (0 Bft) 0,00 h 0,0 km/h (0 Bft)
02.03.2010 23:00 12,7 C 0,2 C 0,0 UV-I 0,0 C 47 % 87 % 0 % 1024,4 hPa 0,0 l/m 0,0 km/h (0 Bft) 0,00 h 0,0 km/h (0 Bft)
03.03.2010 00:00 12,6 C -0,2 C 0,0 UV-I 0,0 C 47 % 89 % 0 % 1024,5 hPa 0,0 l/m 0,0 km/h (0 Bft) 0,00 h 0,0 km/h (0 Bft)
03.03.2010 01:00 12,4 C -0,5 C 0,0 UV-I 0,0 C 47 % 89 % 0 % 1024,6 hPa 0,0 l/m 0,0 km/h (0 Bft) 0,00 h 0,0 km/h (0 Bft)
03.03.2010 02:00 12,4 C -0,5 C 0,0 UV-I 0,0 C 47 % 90 % 0 % 1024,5 hPa 0,0 l/m 0,0 km/h (0 Bft) 0,00 h 0,0 km/h (0 Bft)
03.03.2010 03:00 12,4 C -0,6 C 0,0 UV-I 0,0 C 47 % 91 % 0 % 1024,3 hPa 0,0 l/m 0,0 km/h (0 Bft) 0,00 h 0,0 km/h (0 Bft)
03.03.2010 04:00 12,4 C -0,9 C 0,0 UV-I 0,0 C 46 % 90 % 0 % 1023,6 hPa 0,0 l/m 0,0 km/h (0 Bft) 0,00 h 0,0 km/h (0 Bft)
03.03.2010 05:00 12,3 C -1,1 C 0,0 UV-I 0,0 C 46 % 91 % 0 % 1023,4 hPa 0,0 l/m 0,0 km/h (0 Bft) 0,00 h 0,0 km/h (0 Bft)
03.03.2010 06:00 12,2 C -1,3 C 0,0 UV-I 0,0 C 46 % 91 % 0 % 1023,4 hPa 0,0 l/m 0,0 km/h (0 Bft) 0,00 h 0,0 km/h (0 Bft)
03.03.2010 07:00 12,0 C -1,3 C 0,0 UV-I 0,0 C 46 % 91 % 0 % 1023,9 hPa 0,0 l/m 0,0 km/h (0 Bft) 0,00 h 0,0 km/h (0 Bft)
03.03.2010 08:00 11,9 C -1,2 C 0,0 UV-I 0,0 C 46 % 92 % 0 % 1023,1 hPa 0,0 l/m 0,0 km/h (0 Bft) 0,00 h 0,0 km/h (0 Bft)
03.03.2010 09:00 12,2 C -0,1 C 0,1 UV-I 7,6 C 47 % 93 % 91 % 1023,0 hPa 0,0 l/m 0,0 km/h (0 Bft) 0,83 h 0,0 km/h (0 Bft)
03.03.2010 10:00 12,3 C 1,9 C 1,1 UV-I 9,4 C 48 % 94 % 100 % 1023,1 hPa 0,0 l/m 2,6 km/h (1 Bft) 0,93 h 2,9 km/h (1 Bft)
03.03.2010 11:00 12,6 C 3,8 C 3,5 UV-I 8,1 C 48 % 88 % 100 % 1022,9 hPa 0,0 l/m 1,5 km/h (1 Bft) 0,80 h 1,5 km/h (1 Bft)
03.03.2010 12:00 13,1 C 4,7 C 6,1 UV-I 7,0 C 48 % 81 % 99 % 1023,0 hPa 0,0 l/m 1,3 km/h (1 Bft) 0,87 h 2,1 km/h (1 Bft)
03.03.2010 13:00 14,4 C 7,2 C 8,9 UV-I 9,9 C 46 % 69 % 100 % 1023,7 hPa 0,0 l/m 3,5 km/h (1 Bft) 0,83 h 3,7 km/h (1 Bft)
03.03.2010 14:00 16,2 C 8,6 C 7,9 UV-I 7,3 C 41 % 55 % 100 % 1026,5 hPa 0,0 l/m 5,2 km/h (1 Bft) 1,00 h 4,0 km/h (1 Bft)
03.03.2010 15:00 16,4 C 8,6 C 2,6 UV-I 3,2 C 40 % 57 % 81 % 1023,1 hPa 0,0 l/m 2,2 km/h (1 Bft) 0,50 h 2,3 km/h (1 Bft)
03.03.2010 16:00 16,4 C 8,5 C 0,9 UV-I 1,9 C 40 % 55 % 45 % 1022,0 hPa 0,0 l/m 1,5 km/h (1 Bft) 0,30 h 1,4 km/h (1 Bft)
03.03.2010 17:00 15,7 C 7,2 C 0,1 UV-I 0,0 C 40 % 57 % 0 % 1020,1 hPa 0,0 l/m 1,1 km/h (0 Bft) 0,00 h 1,5 km/h (1 Bft)
03.03.2010 18:00 14,6 C 5,5 C 0,0 UV-I 0,0 C 42 % 61 % 0 % 1019,4 hPa 0,0 l/m 0,9 km/h (0 Bft) 0,00 h 1,0 km/h (0 Bft)
03.03.2010 19:00 13,8 C 4,3 C 0,0 UV-I 0,0 C 43 % 69 % 0 % 1018,9 hPa 0,0 l/m 0,0 km/h (0 Bft) 0,00 h 0,1 km/h (0 Bft)
03.03.2010 20:00 13,5 C 3,4 C 0,0 UV-I 0,0 C 44 % 73 % 0 % 1018,6 hPa 0,0 l/m 0,0 km/h (0 Bft) 0,00 h 0,0 km/h (0 Bft)
03.03.2010 21:00 13,3 C 2,6 C 0,0 UV-I 0,0 C 45 % 77 % 0 % 1018,2 hPa 0,0 l/m 0,0 km/h (0 Bft) 0,00 h 0,0 km/h (0 Bft)
03.03.2010 22:00 13,2 C 1,7 C 0,0 UV-I 0,0 C 45 % 80 % 0 % 1018,5 hPa 0,0 l/m 0,0 km/h (0 Bft) 0,00 h 0,0 km/h (0 Bft)
03.03.2010 23:00 13,0 C 0,9 C 0,0 UV-I 0,0 C 45 % 82 % 0 % 1018,3 hPa 0,0 l/m 0,0 km/h (0 Bft) 0,00 h 0,0 km/h (0 Bft)
04.03.2010 00:00 12,9 C 0,3 C 0,0 UV-I 0,0 C 45 % 85 % 0 % 1018,3 hPa 0,0 l/m 0,0 km/h (0 Bft) 0,00 h 0,0 km/h (0 Bft)
04.03.2010 01:00 12,8 C -0,0 C 0,0 UV-I 0,0 C 45 % 86 % 0 % 1018,1 hPa 0,0 l/m 0,0 km/h (0 Bft) 0,00 h 0,0 km/h (0 Bft)
04.03.2010 02:00 12,8 C 0,0 C 0,0 UV-I 0,0 C 45 % 87 % 0 % 1017,8 hPa 0,0 l/m 0,0 km/h (0 Bft) 0,00 h 0,0 km/h (0 Bft)
04.03.2010 03:00 12,8 C -0,1 C 0,0 UV-I 0,0 C 46 % 88 % 0 % 1017,5 hPa 0,0 l/m 0,0 km/h (0 Bft) 0,00 h 0,0 km/h (0 Bft)
04.03.2010 04:00 12,8 C -0,2 C 0,0 UV-I 0,0 C 46 % 88 % 0 % 1017,6 hPa 0,0 l/m 0,0 km/h (0 Bft) 0,00 h 0,0 km/h (0 Bft)
04.03.2010 05:00 12,7 C -0,4 C 0,0 UV-I 0,0 C 46 % 89 % 0 % 1017,6 hPa 0,0 l/m 0,0 km/h (0 Bft) 0,00 h 0,0 km/h (0 Bft)
04.03.2010 06:00 12,5 C -0,7 C 0,0 UV-I 0,0 C 45 % 88 % 0 % 1017,4 hPa 0,0 l/m 0,1 km/h (0 Bft) 0,00 h 0,1 km/h (0 Bft)
04.03.2010 07:00 12,3 C -1,0 C 0,0 UV-I 0,0 C 45 % 89 % 0 % 1017,5 hPa 0,0 l/m 0,0 km/h (0 Bft) 0,00 h 0,0 km/h (0 Bft)
04.03.2010 08:00 12,3 C -0,7 C 0,0 UV-I 0,0 C 45 % 90 % 0 % 1017,9 hPa 0,0 l/m 0,5 km/h (0 Bft) 0,00 h 1,1 km/h (0 Bft)
04.03.2010 09:00 12,4 C 0,3 C 0,3 UV-I 8,1 C 46 % 91 % 100 % 1018,5 hPa 0,0 l/m 2,1 km/h (1 Bft) 0,57 h 2,3 km/h (1 Bft)
04.03.2010 10:00 12,6 C 2,0 C 1,6 UV-I 8,5 C 47 % 87 % 100 % 1019,1 hPa 0,0 l/m 4,3 km/h (1 Bft) 0,67 h 3,7 km/h (1 Bft)
04.03.2010 11:00 12,8 C 2,9 C 3,3 UV-I 5,0 C 47 % 79 % 96 % 1019,5 hPa 0,0 l/m 7,9 km/h (2 Bft) 0,90 h 7,3 km/h (2 Bft)
04.03.2010 12:00 13,3 C 4,3 C 5,6 UV-I 6,3 C 47 % 73 % 100 % 1019,8 hPa 0,0 l/m 8,5 km/h (2 Bft) 1,00 h 7,0 km/h (2 Bft)
04.03.2010 13:00 14,3 C 5,2 C 6,3 UV-I 5,5 C 44 % 68 % 97 % 1021,3 hPa 0,0 l/m 10,4 km/h (2 Bft) 0,80 h 8,3 km/h (2 Bft)
04.03.2010 14:00 14,8 C 5,3 C 2,4 UV-I 1,8 C 42 % 66 % 48 % 1022,4 hPa 0,0 l/m 11,1 km/h (2 Bft) 0,17 h 9,6 km/h (2 Bft)
04.03.2010 15:00 15,3 C 6,0 C 3,3 UV-I 3,7 C 41 % 63 % 88 % 1022,6 hPa 0,0 l/m 7,8 km/h (2 Bft) 0,50 h 6,0 km/h (2 Bft)
04.03.2010 16:00 15,9 C 6,4 C 0,8 UV-I 3,3 C 39 % 56 % 81 % 1021,9 hPa 0,0 l/m 9,8 km/h (2 Bft) 0,47 h 7,5 km/h (2 Bft)
04.03.2010 17:00 15,9 C 5,7 C 0,2 UV-I 0,4 C 38 % 53 % 13 % 1021,7 hPa 0,0 l/m 9,1 km/h (2 Bft) 0,10 h 6,8 km/h (2 Bft)
04.03.2010 18:00 14,6 C 4,4 C 0,0 UV-I 0,0 C 39 % 59 % 0 % 1021,4 hPa 0,0 l/m 3,9 km/h (1 Bft) 0,00 h 3,5 km/h (1 Bft)
04.03.2010 19:00 13,7 C 3,3 C 0,0 UV-I 0,0 C 40 % 64 % 0 % 1021,9 hPa 0,0 l/m 3,5 km/h (1 Bft) 0,00 h 3,4 km/h (1 Bft)
04.03.2010 20:00 13,2 C 2,3 C 0,0 UV-I 0,0 C 41 % 67 % 0 % 1022,1 hPa 0,0 l/m 2,2 km/h (1 Bft) 0,00 h 1,8 km/h (1 Bft)
04.03.2010 21:00 12,9 C 1,3 C 0,0 UV-I 0,0 C 41 % 65 % 0 % 1022,8 hPa 0,0 l/m 4,2 km/h (1 Bft) 0,00 h 3,5 km/h (1 Bft)
04.03.2010 22:00 12,8 C 0,5 C 0,0 UV-I 0,0 C 41 % 66 % 0 % 1023,4 hPa 0,0 l/m 0,8 km/h (0 Bft) 0,00 h 0,9 km/h (0 Bft)
04.03.2010 23:00 12,6 C -0,3 C 0,0 UV-I 0,0 C 41 % 70 % 0 % 1023,4 hPa 0,0 l/m 0,2 km/h (0 Bft) 0,00 h 0,1 km/h (0 Bft)
05.03.2010 00:00 12,4 C -0,4 C 0,0 UV-I 0,0 C 41 % 74 % 0 % 1023,6 hPa 0,0 l/m 0,0 km/h (0 Bft) 0,00 h 0,1 km/h (0 Bft)
05.03.2010 01:00 12,4 C -0,5 C 0,0 UV-I 0,0 C 41 % 77 % 0 % 1024,2 hPa 0,0 l/m 0,0 km/h (0 Bft) 0,00 h 0,1 km/h (0 Bft)
05.03.2010 02:00 12,4 C -0,9 C 0,0 UV-I 0,0 C 41 % 80 % 0 % 1024,5 hPa 0,0 l/m 0,2 km/h (0 Bft) 0,00 h 0,4 km/h (0 Bft)
05.03.2010 03:00 12,3 C -1,1 C 0,0 UV-I 0,0 C 42 % 82 % 0 % 1024,6 hPa 0,0 l/m 0,1 km/h (0 Bft) 0,00 h 0,2 km/h (0 Bft)
05.03.2010 04:00 12,2 C -1,4 C 0,0 UV-I 0,0 C 42 % 84 % 0 % 1024,7 hPa 0,0 l/m 0,0 km/h (0 Bft) 0,00 h 0,0 km/h (0 Bft)
05.03.2010 05:00 12,0 C -1,8 C 0,0 UV-I 0,0 C 42 % 85 % 0 % 1024,9 hPa 0,0 l/m 0,0 km/h (0 Bft) 0,00 h 0,0 km/h (0 Bft)
05.03.2010 06:00 12,0 C -2,0 C 0,0 UV-I 0,0 C 42 % 86 % 0 % 1025,1 hPa 0,0 l/m 0,0 km/h (0 Bft) 0,00 h 0,0 km/h (0 Bft)
05.03.2010 07:00 11,8 C -1,9 C 0,0 UV-I 0,0 C 42 % 87 % 0 % 1025,5 hPa 0,0 l/m 0,0 km/h (0 Bft) 0,00 h 0,1 km/h (0 Bft)
05.03.2010 08:00 11,8 C -1,2 C 0,0 UV-I 0,0 C 42 % 88 % 0 % 1025,7 hPa 0,0 l/m 0,3 km/h (0 Bft) 0,00 h 0,5 km/h (0 Bft)
05.03.2010 09:00 11,9 C -0,5 C 0,1 UV-I 0,0 C 42 % 88 % 1 % 1025,7 hPa 0,0 l/m 1,2 km/h (1 Bft) 0,00 h 1,5 km/h (1 Bft)
05.03.2010 10:00 12,2 C 0,5 C 1,4 UV-I 2,5 C 42 % 84 % 64 % 1026,0 hPa 0,0 l/m 2,5 km/h (1 Bft) 0,30 h 3,0 km/h (1 Bft)
05.03.2010 11:00 12,4 C 2,2 C 3,8 UV-I 6,3 C 41 % 75 % 100 % 1026,0 hPa 0,0 l/m 5,1 km/h (1 Bft) 0,87 h 5,3 km/h (1 Bft)
05.03.2010 12:00 12,8 C 3,8 C 6,1 UV-I 6,8 C 41 % 72 % 100 % 1025,7 hPa 0,0 l/m 7,2 km/h (2 Bft) 0,90 h 7,2 km/h (2 Bft)
05.03.2010 13:00 13,3 C 4,4 C 2,7 UV-I 3,7 C 40 % 66 % 80 % 1025,4 hPa 0,0 l/m 7,0 km/h (2 Bft) 0,47 h 6,6 km/h (2 Bft)
05.03.2010 14:00 13,5 C 4,6 C 1,0 UV-I 1,6 C 38 % 62 % 45 % 1024,8 hPa 0,0 l/m 8,1 km/h (2 Bft) 0,00 h 6,7 km/h (2 Bft)
05.03.2010 15:00 13,3 C 4,8 C 0,6 UV-I 1,2 C 38 % 60 % 36 % 1023,6 hPa 0,0 l/m 7,5 km/h (2 Bft) 0,03 h 7,5 km/h (2 Bft)
05.03.2010 16:00 13,0 C 4,8 C 0,2 UV-I 0,1 C 37 % 60 % 3 % 1022,5 hPa 0,0 l/m 9,7 km/h (2 Bft) 0,00 h 7,9 km/h (2 Bft)
05.03.2010 17:00 12,6 C 4,5 C 0,0 UV-I 0,0 C 39 % 66 % 0 % 1021,0 hPa 0,0 l/m 10,0 km/h (2 Bft) 0,00 h 8,2 km/h (2 Bft)
05.03.2010 18:00 12,2 C 3,7 C 0,0 UV-I 0,0 C 41 % 75 % 0 % 1020,2 hPa 0,0 l/m 12,0 km/h (2 Bft) 0,00 h 11,3 km/h (2 Bft)
05.03.2010 19:00 11,9 C 2,7 C 0,0 UV-I 0,0 C 44 % 84 % 0 % 1019,2 hPa 0,5 l/m 11,4 km/h (2 Bft) 0,00 h 9,2 km/h (2 Bft)
05.03.2010 20:00 11,6 C 1,8 C 0,0 UV-I 0,0 C 46 % 89 % 0 % 1017,9 hPa 1,2 l/m 14,7 km/h (3 Bft) 0,00 h 12,6 km/h (3 Bft)
05.03.2010 21:00 11,4 C 1,7 C 0,0 UV-I 0,0 C 47 % 91 % 0 % 1016,7 hPa 0,4 l/m 15,5 km/h (3 Bft) 0,00 h 14,0 km/h (3 Bft)
05.03.2010 22:00 11,4 C 1,7 C 0,0 UV-I 0,0 C 48 % 92 % 0 % 1015,7 hPa 1,0 l/m 14,2 km/h (3 Bft) 0,00 h 11,7 km/h (2 Bft)
05.03.2010 23:00 11,4 C 1,9 C 0,0 UV-I 0,0 C 48 % 93 % 0 % 1014,5 hPa 1,0 l/m 12,3 km/h (3 Bft) 0,00 h 10,4 km/h (2 Bft)
06.03.2010 00:00 11,5 C 2,4 C 0,0 UV-I 0,0 C 49 % 94 % 0 % 1013,7 hPa 1,1 l/m 10,5 km/h (2 Bft) 0,00 h 10,1 km/h (2 Bft)
06.03.2010 01:00 11,7 C 1,7 C 0,0 UV-I 0,0 C 49 % 92 % 0 % 1013,6 hPa 0,7 l/m 8,7 km/h (2 Bft) 0,00 h 7,1 km/h (2 Bft)
06.03.2010 02:00 11,7 C 1,3 C 0,0 UV-I 0,0 C 48 % 93 % 0 % 1013,2 hPa 0,5 l/m 9,1 km/h (2 Bft) 0,00 h 12,2 km/h (2 Bft)
06.03.2010 03:00 11,6 C 1,1 C 0,0 UV-I 0,0 C 48 % 93 % 0 % 1012,3 hPa 0,2 l/m 8,0 km/h (2 Bft) 0,00 h 6,4 km/h (2 Bft)
06.03.2010 04:00 11,6 C 1,1 C 0,0 UV-I 0,0 C 48 % 91 % 0 % 1012,0 hPa 0,0 l/m 11,8 km/h (2 Bft) 0,00 h 11,0 km/h (2 Bft)
06.03.2010 05:00 11,5 C 1,2 C 0,0 UV-I 0,0 C 47 % 88 % 0 % 1011,9 hPa 0,0 l/m 13,6 km/h (3 Bft) 0,00 h 8,8 km/h (2 Bft)
06.03.2010 06:00 11,5 C 1,2 C 0,0 UV-I 0,0 C 47 % 86 % 0 % 1013,1 hPa 0,0 l/m 14,9 km/h (3 Bft) 0,00 h 9,3 km/h (2 Bft)
06.03.2010 07:00 11,5 C 0,9 C 0,0 UV-I 0,0 C 46 % 84 % 0 % 1014,9 hPa 0,0 l/m 14,7 km/h (3 Bft) 0,00 h 10,7 km/h (2 Bft)
06.03.2010 08:00 11,6 C 0,7 C 0,0 UV-I 0,0 C 46 % 84 % 0 % 1016,4 hPa 0,1 l/m 11,3 km/h (2 Bft) 0,00 h 9,5 km/h (2 Bft)
06.03.2010 09:00 11,7 C 0,7 C 0,0 UV-I 0,0 C 45 % 82 % 0 % 1017,9 hPa 0,0 l/m 8,8 km/h (2 Bft) 0,00 h 7,2 km/h (2 Bft)
06.03.2010 10:00 11,9 C 0,6 C 0,4 UV-I 0,5 C 44 % 81 % 13 % 1020,0 hPa 0,0 l/m 7,2 km/h (2 Bft) 0,00 h 5,4 km/h (1 Bft)
06.03.2010 11:00 12,1 C 1,3 C 3,2 UV-I 3,8 C 43 % 77 % 74 % 1021,4 hPa 0,3 l/m 8,0 km/h (2 Bft) 0,57 h 6,5 km/h (2 Bft)
06.03.2010 12:00 12,5 C 2,5 C 4,7 UV-I 4,7 C 41 % 71 % 89 % 1022,7 hPa 0,0 l/m 8,4 km/h (2 Bft) 0,70 h 6,9 km/h (2 Bft)
06.03.2010 13:00 13,1 C 2,7 C 4,2 UV-I 3,4 C 39 % 66 % 83 % 1024,5 hPa 0,0 l/m 7,4 km/h (2 Bft) 0,53 h 5,3 km/h (1 Bft)
06.03.2010 14:00 14,5 C 3,9 C 6,6 UV-I 5,9 C 36 % 60 % 100 % 1028,6 hPa 0,0 l/m 6,2 km/h (2 Bft) 0,83 h 5,4 km/h (1 Bft)
06.03.2010 15:00 16,2 C 4,6 C 4,2 UV-I 5,2 C 32 % 52 % 100 % 1029,3 hPa 0,0 l/m 6,2 km/h (2 Bft) 0,87 h 6,2 km/h (2 Bft)
06.03.2010 16:00 16,5 C 4,5 C 1,1 UV-I 3,6 C 31 % 50 % 88 % 1028,1 hPa 0,0 l/m 5,5 km/h (1 Bft) 0,87 h 4,3 km/h (1 Bft)
06.03.2010 17:00 15,6 C 3,0 C 0,1 UV-I 0,6 C 32 % 54 % 17 % 1027,0 hPa 0,0 l/m 5,3 km/h (1 Bft) 0,03 h 4,5 km/h (1 Bft)
06.03.2010 18:00 14,1 C 1,0 C 0,0 UV-I 0,0 C 33 % 61 % 0 % 1027,1 hPa 0,0 l/m 2,6 km/h (1 Bft) 0,00 h 2,0 km/h (1 Bft)
06.03.2010 19:00 12,9 C -0,2 C 0,0 UV-I 0,0 C 34 % 67 % 0 % 1027,6 hPa 0,0 l/m 0,2 km/h (0 Bft) 0,00 h 0,0 km/h (0 Bft)
06.03.2010 20:00 12,3 C -0,3 C 0,0 UV-I 0,0 C 35 % 71 % 0 % 1027,8 hPa 0,0 l/m 1,4 km/h (1 Bft) 0,00 h 1,4 km/h (1 Bft)
06.03.2010 21:00 12,1 C -0,3 C 0,0 UV-I 0,0 C 37 % 74 % 0 % 1028,0 hPa 0,0 l/m 1,1 km/h (1 Bft) 0,00 h 1,5 km/h (1 Bft)
06.03.2010 22:00 12,0 C -0,5 C 0,0 UV-I 0,0 C 38 % 77 % 0 % 1028,8 hPa 0,0 l/m 0,3 km/h (0 Bft) 0,00 h 0,1 km/h (0 Bft)
06.03.2010 23:00 11,9 C -0,9 C 0,0 UV-I 0,0 C 38 % 77 % 0 % 1029,1 hPa 0,0 l/m 0,3 km/h (0 Bft) 0,00 h 0,6 km/h (0 Bft)
07.03.2010 00:00 11,7 C -1,1 C 0,0 UV-I 0,0 C 37 % 76 % 0 % 1029,6 hPa 0,0 l/m 0,6 km/h (0 Bft) 0,00 h 1,1 km/h (0 Bft)
07.03.2010 01:00 11,6 C -1,4 C 0,0 UV-I 0,0 C 37 % 76 % 0 % 1030,0 hPa 0,0 l/m 0,9 km/h (0 Bft) 0,00 h 1,6 km/h (1 Bft)
07.03.2010 02:00 11,6 C -1,6 C 0,0 UV-I 0,0 C 37 % 76 % 0 % 1030,7 hPa 0,0 l/m 0,8 km/h (0 Bft) 0,00 h 1,5 km/h (1 Bft)
07.03.2010 03:00 11,4 C -1,8 C 0,0 UV-I 0,0 C 37 % 76 % 0 % 1030,9 hPa 0,0 l/m 0,6 km/h (0 Bft) 0,00 h 1,6 km/h (1 Bft)
07.03.2010 04:00 11,3 C -2,1 C 0,0 UV-I 0,0 C 37 % 77 % 0 % 1030,9 hPa 0,0 l/m 0,3 km/h (0 Bft) 0,00 h 0,4 km/h (0 Bft)
07.03.2010 05:00 11,2 C -2,4 C 0,0 UV-I 0,0 C 37 % 77 % 0 % 1030,9 hPa 0,0 l/m 0,4 km/h (0 Bft) 0,00 h 0,5 km/h (0 Bft)
07.03.2010 06:00 11,2 C -2,8 C 0,0 UV-I 0,0 C 37 % 78 % 0 % 1031,2 hPa 0,0 l/m 0,4 km/h (0 Bft) 0,00 h 0,5 km/h (0 Bft)
07.03.2010 07:00 11,1 C -3,1 C 0,0 UV-I 0,0 C 37 % 79 % 0 % 1031,4 hPa 0,0 l/m 0,5 km/h (0 Bft) 0,00 h 0,5 km/h (0 Bft)
07.03.2010 08:00 11,0 C -3,1 C 0,1 UV-I 0,0 C 37 % 79 % 0 % 1031,6 hPa 0,0 l/m 1,2 km/h (1 Bft) 0,00 h 1,8 km/h (1 Bft)
07.03.2010 09:00 11,1 C -2,2 C 0,6 UV-I 7,8 C 37 % 79 % 88 % 1031,6 hPa 0,0 l/m 1,3 km/h (1 Bft) 0,83 h 1,3 km/h (1 Bft)
07.03.2010 10:00 11,2 C -0,3 C 2,6 UV-I 9,8 C 37 % 73 % 100 % 1032,3 hPa 0,0 l/m 2,2 km/h (1 Bft) 0,93 h 2,7 km/h (1 Bft)
07.03.2010 11:00 11,4 C 1,5 C 6,4 UV-I 9,2 C 37 % 64 % 100 % 1032,8 hPa 0,0 l/m 3,8 km/h (1 Bft) 0,97 h 3,7 km/h (1 Bft)
07.03.2010 12:00 12,1 C 2,7 C 10,0 UV-I 8,6 C 37 % 58 % 100 % 1032,8 hPa 0,0 l/m 4,8 km/h (1 Bft) 0,90 h 4,0 km/h (1 Bft)
07.03.2010 13:00 13,9 C 3,6 C 10,2 UV-I 9,4 C 35 % 54 % 100 % 1034,7 hPa 0,0 l/m 4,8 km/h (1 Bft) 0,90 h 4,3 km/h (1 Bft)
07.03.2010 14:00 15,7 C 4,3 C 10,1 UV-I 8,2 C 31 % 46 % 100 % 1038,2 hPa 0,0 l/m 5,9 km/h (2 Bft) 0,97 h 5,3 km/h (1 Bft)
07.03.2010 15:00 17,0 C 4,9 C 5,6 UV-I 7,1 C 29 % 41 % 100 % 1036,4 hPa 0,0 l/m 5,7 km/h (1 Bft) 0,97 h 4,9 km/h (1 Bft)
07.03.2010 16:00 17,4 C 4,9 C 1,5 UV-I 6,1 C 28 % 40 % 100 % 1034,3 hPa 0,0 l/m 4,2 km/h (1 Bft) 1,00 h 3,5 km/h (1 Bft)
07.03.2010 17:00 16,8 C 3,9 C 0,3 UV-I 2,8 C 29 % 41 % 69 % 1032,0 hPa 0,0 l/m 4,0 km/h (1 Bft) 0,83 h 3,8 km/h (1 Bft)
07.03.2010 18:00 15,3 C 2,2 C 0,0 UV-I 0,0 C 29 % 46 % 0 % 1031,1 hPa 0,0 l/m 1,3 km/h (1 Bft) 0,00 h 1,3 km/h (1 Bft)
07.03.2010 19:00 13,7 C 0,7 C 0,0 UV-I 0,0 C 31 % 54 % 0 % 1030,5 hPa 0,0 l/m 0,3 km/h (0 Bft) 0,00 h 0,1 km/h (0 Bft)
07.03.2010 20:00 12,9 C -0,1 C 0,0 UV-I 0,0 C 33 % 61 % 0 % 1030,3 hPa 0,0 l/m 0,1 km/h (0 Bft) 0,00 h 0,1 km/h (0 Bft)
07.03.2010 21:00 12,5 C -0,5 C 0,0 UV-I 0,0 C 33 % 60 % 0 % 1030,2 hPa 0,0 l/m 0,2 km/h (0 Bft) 0,00 h 0,2 km/h (0 Bft)
07.03.2010 22:00 12,2 C -0,8 C 0,0 UV-I 0,0 C 32 % 57 % 0 % 1030,0 hPa 0,0 l/m 0,0 km/h (0 Bft) 0,00 h 0,0 km/h (0 Bft)
07.03.2010 23:00 12,0 C -1,2 C 0,0 UV-I 0,0 C 32 % 59 % 0 % 1030,0 hPa 0,0 l/m 0,0 km/h (0 Bft) 0,00 h 0,0 km/h (0 Bft)
Min-Datum _ 07.03.10 07.03.10 01.03.10 01.03.10 07.03.10 07.03.10 01.03.10 01.03.10 - 01.03.10 - 01.03.10
_ Min-Zeit 07:46 08:04 00:00 00:00 15:40 15:32 00:00 00:00 - 20:00 - 08:20
Minimum _ 10,9 C -3,3 C 0,0 UV-I 0,0 C 28 % 39 % 0 % 995,9 hPa - 0,0 km/h (0 Bft) - 0,0 km/h (0 Bft)
Max-Datum _ 07.03.10 03.03.10 07.03.10 03.03.10 01.03.10 02.03.10 02.03.10 07.03.10 05.03.10 05.03.10 01.03.10 05.03.10
_ Max-Zeit 16:12 16:04 12:30 09:56 00:02 08:36 09:04 13:52 20:14 21:58 14:14 21:50
Maximum _ 17,5 C 9,1 C 11,7 UV-I 11,7 C 56 % 95 % 100 % 1038,5 hPa 1,2 l/m 18,5 km/h
W-SW (3 Bft)
0,03 h 33,7 km/h
W-SW (5 Bft)
Durchschnitt _ 12,9 C 2,1 C 1,0 UV-I 1,5 C 44 % 78 % 24 % 1020,8 hPa #7,8 l/m 4,1 km/h (1 Bft) #31:16 h 3,6 km/h (1 Bft)
© 2012 W. Hausmann